Time;durP1;ratioP1;P1;durP2;ratioP2;P2;SDS_P1;SDS_P2;PMS_P1;PMS_P2;Temp;Humidity;BMP_temperature;BMP_pressure;BME280_temperature;BME280_humidity;BME280_pressure;Samples;Min_cycle;Max_cycle;Signal;HPM_P1;HPM_P2
2022/12/06 00:25:31;;;;;;;12.27;3.20;;;22.80;57.60;;;;;;5120009;27;20413;-67
2022/12/06 00:27:58;;;;;;;16.15;3.30;;;23.00;57.80;;;;;;5128064;27;20027;-66
2022/12/06 00:31:04;;;;;;;15.65;3.03;;;23.00;58.00;;;;;;5120699;27;20016;-66
2022/12/06 00:34:10;;;;;;;15.38;3.10;;;23.00;58.50;;;;;;5122600;27;20106;-66
2022/12/06 00:36:41;;;;;;;16.00;4.20;;;23.10;58.40;;;;;;5121728;27;20035;-66
2022/12/06 00:39:11;;;;;;;14.57;3.33;;;23.10;57.80;;;;;;5124131;27;20055;-66
2022/12/06 00:41:38;;;;;;;23.23;4.57;;;23.10;57.40;;;;;;5122027;27;20012;-66
2022/12/06 00:44:05;;;;;;;14.13;3.78;;;23.10;57.20;;;;;;5124769;27;20056;-65
2022/12/06 00:46:32;;;;;;;15.45;3.60;;;23.00;56.90;;;;;;5122815;27;20030;-67
2022/12/06 00:49:01;;;;;;;23.15;5.18;;;23.10;56.80;;;;;;5129816;27;20385;-66
2022/12/06 00:51:30;;;;;;;18.60;4.55;;;23.10;57.40;;;;;;5119985;27;20496;-65
2022/12/06 00:53:57;;;;;;;32.92;6.03;;;23.00;56.70;;;;;;5126188;27;20023;-65
2022/12/06 00:56:24;;;;;;;15.80;2.90;;;23.00;56.70;;;;;;5125687;27;20042;-64
2022/12/06 00:58:51;;;;;;;15.75;3.40;;;23.00;56.70;;;;;;5130521;27;20110;-64
2022/12/06 01:01:26;;;;;;;23.35;2.35;;;23.00;56.70;;;;;;5126737;27;20150;-67
2022/12/06 01:03:53;;;;;;;;;;;22.90;56.60;;;;;;5125482;27;20027;-65
2022/12/06 01:06:24;;;;;;;6.97;2.90;;;22.90;56.70;;;;;;5127490;27;19903;-65
2022/12/06 01:08:53;;;;;;;9.05;2.38;;;22.90;56.60;;;;;;5125226;27;20031;-66
2022/12/06 01:11:21;;;;;;;18.58;2.83;;;22.90;56.60;;;;;;5126432;27;20030;-65
2022/12/06 01:13:47;;;;;;;16.77;4.38;;;22.90;56.60;;;;;;5125023;27;20041;-65
2022/12/06 01:16:17;;;;;;;12.05;2.08;;;22.90;56.60;;;;;;5126206;27;20027;-65
2022/12/06 01:18:45;;;;;;;22.77;4.88;;;22.80;56.70;;;;;;5121308;27;20397;-65
2022/12/06 01:21:14;;;;;;;38.08;5.45;;;22.80;56.80;;;;;;5114787;27;20031;-65
2022/12/06 01:23:42;;;;;;;18.17;4.57;;;22.80;56.80;;;;;;5109883;27;20115;-67
2022/12/06 01:26:18;;;;;;;19.63;3.53;;;22.70;56.70;;;;;;5111868;27;20059;-67
2022/12/06 01:28:45;;;;;;;17.73;3.17;;;22.70;56.70;;;;;;5114114;27;20051;-67
2022/12/06 01:31:13;;;;;;;6.65;1.70;;;22.70;56.80;;;;;;5109837;27;20023;-66
2022/12/06 01:33:40;;;;;;;11.75;2.10;;;22.60;56.70;;;;;;5112774;27;20428;-67
2022/12/06 01:36:08;;;;;;;5.93;1.80;;;22.60;56.80;;;;;;5110768;27;20015;-66
2022/12/06 01:38:34;;;;;;;12.00;2.47;;;22.60;56.80;;;;;;5109847;27;20514;-65
2022/12/06 01:41:01;;;;;;;23.58;5.53;;;22.60;56.80;;;;;;5107455;27;20030;-67
2022/12/06 01:43:41;;;;;;;42.78;6.80;;;22.60;56.90;;;;;;5114409;27;20076;-66
2022/12/06 01:46:20;;;;;;;30.02;6.70;;;22.60;57.30;;;;;;5112594;27;20080;-66
2022/12/06 01:48:51;;;;;;;44.28;7.55;;;22.60;57.50;;;;;;5110660;27;20031;-65
2022/12/06 01:51:17;;;;;;;42.45;8.88;;;22.50;57.60;;;;;;5112668;27;20050;-66
2022/12/06 01:53:48;;;;;;;51.80;8.35;;;22.60;57.80;;;;;;5112358;27;20404;-64
2022/12/06 01:56:15;;;;;;;45.72;9.40;;;22.60;57.80;;;;;;5110963;27;20027;-67
2022/12/06 01:58:45;;;;;;;40.38;8.20;;;22.50;57.60;;;;;;5109994;27;20066;-65
2022/12/06 02:01:12;;;;;;;30.08;5.45;;;22.50;57.50;;;;;;5108924;27;20107;-65
2022/12/06 02:03:38;;;;;;;28.08;5.38;;;22.50;57.40;;;;;;5111028;27;20034;-65
2022/12/06 02:06:08;;;;;;;17.15;3.30;;;22.50;57.60;;;;;;5115112;27;20028;-64
2022/12/06 02:08:35;;;;;;;8.98;1.73;;;22.50;57.70;;;;;;5109950;27;20464;-65
2022/12/06 02:11:03;;;;;;;15.18;1.88;;;22.50;57.90;;;;;;5110490;27;20096;-65
2022/12/06 02:13:32;;;;;;;4.30;1.80;;;22.40;57.90;;;;;;5111778;27;20024;-65
2022/12/06 02:16:02;;;;;;;1.50;0.93;;;22.50;58.00;;;;;;5109863;27;20024;-64
2022/12/06 02:18:31;;;;;;;1.95;1.00;;;22.50;58.00;;;;;;5109899;27;20450;-63
2022/12/06 02:21:20;;;;;;;0.82;0.80;;;22.40;58.00;;;;;;5115200;27;20583;-64
2022/12/06 02:24:00;;;;;;;3.58;1.10;;;22.40;58.00;;;;;;5112991;27;20512;-63
2022/12/06 02:26:37;;;;;;;2.97;0.77;;;22.40;58.00;;;;;;5111598;27;20031;-65
2022/12/06 02:29:37;;;;;;;1.42;0.90;;;22.40;58.20;;;;;;5113170;27;20031;-66
2022/12/06 02:32:16;;;;;;;4.20;0.98;;;22.40;58.10;;;;;;5107276;27;20020;-63
2022/12/06 02:35:08;;;;;;;3.10;0.52;;;22.40;58.10;;;;;;5108146;27;20031;-64
2022/12/06 02:37:48;;;;;;;11.38;1.17;;;22.40;58.20;;;;;;5109877;27;20123;-64
2022/12/06 02:40:22;;;;;;;6.75;0.93;;;22.30;59.30;;;;;;5115050;27;20076;-65
2022/12/06 02:43:31;;;;;;;4.57;1.33;;;22.30;59.80;;;;;;5109415;27;20020;-64
2022/12/06 02:46:01;;;;;;;7.10;1.17;;;22.30;58.80;;;;;;5058639;28;20031;-64
2022/12/06 02:48:28;;;;;;;1.02;0.73;;;22.30;59.00;;;;;;5059395;28;20028;-64
2022/12/06 02:51:10;;;;;;;1.92;0.70;;;22.30;58.90;;;;;;5083505;27;20042;-65
2022/12/06 02:53:39;;;;;;;2.95;1.00;;;22.30;58.60;;;;;;5107836;27;20026;-64
2022/12/06 02:56:07;;;;;;;2.92;1.27;;;22.20;58.40;;;;;;5109090;27;20036;-65
2022/12/06 02:58:36;;;;;;;3.53;0.75;;;22.20;58.30;;;;;;5105856;27;20584;-65
2022/12/06 03:01:11;;;;;;;2.30;0.95;;;22.20;58.30;;;;;;5111288;27;20035;-65
2022/12/06 03:04:09;;;;;;;2.58;1.27;;;22.20;58.20;;;;;;5109689;27;20024;-64
2022/12/06 03:06:57;;;;;;;4.93;0.88;;;22.20;58.30;;;;;;5110077;27;20466;-63
2022/12/06 03:09:57;;;;;;;4.15;1.00;;;22.10;58.20;;;;;;5107078;27;20046;-63
2022/12/06 03:12:44;;;;;;;9.20;2.05;;;22.20;58.30;;;;;;5110839;27;20055;-65
2022/12/06 03:15:34;;;;;;;6.15;2.00;;;22.10;58.30;;;;;;5109347;27;20490;-64
2022/12/06 03:18:30;;;;;;;6.20;1.65;;;22.10;58.40;;;;;;5103706;27;20426;-66
2022/12/06 03:21:10;;;;;;;6.43;2.63;;;22.10;58.40;;;;;;5109973;27;20031;-64
2022/12/06 03:23:41;;;;;;;9.32;2.22;;;22.10;58.50;;;;;;5103781;27;20509;-64
2022/12/06 03:26:12;;;;;;;10.48;2.08;;;22.00;58.40;;;;;;5115922;27;20023;-66
2022/12/06 03:28:41;;;;;;;7.78;1.80;;;22.00;58.50;;;;;;5107813;27;20019;-67
2022/12/06 03:31:12;;;;;;;5.22;1.58;;;22.00;58.60;;;;;;5108515;27;20153;-65
2022/12/06 03:33:54;;;;;;;2.63;1.17;;;22.00;58.70;;;;;;5109763;27;20031;-64
2022/12/06 03:36:22;;;;;;;8.07;2.00;;;22.00;58.70;;;;;;5108160;27;20023;-65
2022/12/06 03:39:02;;;;;;;5.40;1.35;;;22.00;58.80;;;;;;5107364;27;20032;-64
2022/12/06 03:41:35;;;;;;;2.80;1.90;;;21.90;58.70;;;;;;5105707;27;20479;-65
2022/12/06 03:44:02;;;;;;;4.57;1.25;;;21.90;58.60;;;;;;5105476;27;20032;-63
2022/12/06 03:46:40;;;;;;;1.10;0.75;;;21.90;58.60;;;;;;5105846;27;20028;-62
2022/12/06 03:49:16;;;;;;;2.13;1.02;;;21.90;58.60;;;;;;5111654;27;20061;-63
2022/12/06 03:51:44;;;;;;;8.45;3.03;;;21.90;58.60;;;;;;5110133;28;20032;-65
2022/12/06 03:54:11;;;;;;;19.48;15.48;;;21.90;58.80;;;;;;5112385;27;20416;-64
2022/12/06 03:56:38;;;;;;;38.67;28.30;;;21.80;59.30;;;;;;5105378;27;20191;-65
2022/12/06 03:59:09;;;;;;;25.02;21.60;;;21.80;59.50;;;;;;5112385;27;20101;-64
2022/12/06 04:01:37;;;;;;;12.75;9.35;;;21.90;59.40;;;;;;5103796;28;20027;-65
2022/12/06 04:04:04;;;;;;;8.88;3.13;;;21.90;59.30;;;;;;5110047;28;20098;-64
2022/12/06 04:06:32;;;;;;;7.32;4.28;;;21.80;59.70;;;;;;5104683;28;20085;-66
2022/12/06 04:11:52;;;;;;;40.45;34.85;;;21.80;60.70;;;;;;5106664;28;20721;-65
2022/12/06 04:14:19;;;;;;;39.35;32.75;;;21.80;60.10;;;;;;5106768;28;20480;-65
2022/12/06 04:19:31;;;;;;;12.30;10.80;;;21.70;59.80;;;;;;5107731;28;20096;-63
2022/12/06 04:24:42;;;;;;;11.32;10.10;;;21.80;60.20;;;;;;5105885;28;20405;-64
2022/12/06 04:39:34;;;;;;;5.20;4.25;;;21.80;60.50;;;;;;5105995;28;20054;-64
2022/12/06 04:44:47;;;;;;;6.78;2.60;;;21.80;60.90;;;;;;5105642;28;20447;-68
2022/12/06 04:47:53;;;;;;;4.00;1.55;;;21.80;60.80;;;;;;5105515;28;20486;-66
2022/12/06 04:50:59;;;;;;;5.75;1.40;;;21.70;61.30;;;;;;5106259;27;20498;-66
2022/12/06 04:53:25;;;;;;;1.40;1.02;;;21.80;60.90;;;;;;5106332;28;20031;-67
2022/12/06 04:55:52;;;;;;;5.30;1.17;;;21.80;62.20;;;;;;5112062;27;20034;-66
2022/12/06 04:58:18;;;;;;;9.75;1.38;;;21.80;62.80;;;;;;5110644;27;20129;-66
2022/12/06 05:00:45;;;;;;;5.40;0.80;;;21.80;62.60;;;;;;5112612;27;20027;-66
2022/12/06 05:03:13;;;;;;;3.55;0.73;;;21.80;63.00;;;;;;5114121;27;20031;-66
2022/12/06 05:05:41;;;;;;;1.83;0.40;;;21.90;63.40;;;;;;5111046;27;20077;-66
2022/12/06 05:08:10;;;;;;;3.35;0.80;;;21.90;63.60;;;;;;5113938;27;20034;-67
2022/12/06 05:10:37;;;;;;;0.30;0.30;;;21.90;63.60;;;;;;5113684;27;20023;-66
2022/12/06 05:13:04;;;;;;;1.92;0.50;;;21.90;63.40;;;;;;5114832;27;20026;-66
2022/12/06 05:15:32;;;;;;;1.08;0.45;;;21.90;63.30;;;;;;5112622;27;20460;-66
2022/12/06 05:17:58;;;;;;;0.77;0.30;;;21.90;63.00;;;;;;5113161;27;20461;-66
2022/12/06 05:20:25;;;;;;;0.20;0.20;;;22.00;62.90;;;;;;5112456;27;20027;-67
2022/12/06 05:22:51;;;;;;;0.55;0.35;;;22.00;62.80;;;;;;5107631;27;20027;-66
2022/12/06 05:25:18;;;;;;;0.85;0.77;;;22.00;62.70;;;;;;5114414;27;20051;-66
2022/12/06 05:27:44;;;;;;;0.57;0.20;;;22.00;62.70;;;;;;5111480;27;20446;-66
2022/12/06 05:30:11;;;;;;;1.48;0.40;;;22.10;62.50;;;;;;5115929;27;20088;-66
2022/12/06 05:32:39;;;;;;;1.55;0.40;;;22.10;62.40;;;;;;5113033;27;20072;-67
2022/12/06 05:35:06;;;;;;;3.05;0.60;;;22.10;62.00;;;;;;5109603;27;20038;-66
2022/12/06 05:37:33;;;;;;;0.50;0.30;;;22.10;61.60;;;;;;5114037;27;20581;-66
2022/12/06 05:39:59;;;;;;;2.15;0.68;;;22.10;61.30;;;;;;5110587;27;20064;-67
2022/12/06 05:42:26;;;;;;;2.10;0.40;;;22.20;61.20;;;;;;5112031;27;20495;-66
2022/12/06 05:44:52;;;;;;;0.93;0.25;;;22.20;61.00;;;;;;5104420;27;20016;-67
2022/12/06 05:47:19;;;;;;;1.25;0.30;;;22.20;60.40;;;;;;5111438;27;20027;-66
2022/12/06 05:49:46;;;;;;;0.60;0.30;;;22.30;59.90;;;;;;5108729;27;20483;-66
2022/12/06 05:52:12;;;;;;;1.70;0.32;;;22.30;59.40;;;;;;5115437;27;20461;-66
2022/12/06 05:54:39;;;;;;;0.20;0.20;;;22.40;59.20;;;;;;5106638;27;20034;-66
2022/12/06 05:57:05;;;;;;;0.22;0.22;;;22.40;58.80;;;;;;5104239;27;20028;-66
2022/12/06 05:59:32;;;;;;;0.35;0.20;;;22.40;58.60;;;;;;5113739;27;20114;-66
2022/12/06 06:01:59;;;;;;;1.40;1.05;;;22.40;58.40;;;;;;5116689;27;20024;-66
2022/12/06 06:04:25;;;;;;;0.60;0.47;;;22.50;58.30;;;;;;5108638;27;20016;-66
2022/12/06 06:06:52;;;;;;;0.98;0.60;;;22.50;58.20;;;;;;5108873;27;20027;-66
2022/12/06 06:09:18;;;;;;;0.38;0.38;;;22.50;58.20;;;;;;5108670;27;20033;-66
2022/12/06 06:11:45;;;;;;;3.03;1.13;;;22.60;58.00;;;;;;5110851;27;20424;-66
2022/12/06 06:14:11;;;;;;;1.63;0.30;;;22.60;57.80;;;;;;5109824;27;20154;-66
2022/12/06 06:16:38;;;;;;;1.13;0.50;;;22.60;57.50;;;;;;5110791;27;20418;-65
2022/12/06 06:19:04;;;;;;;2.30;0.30;;;22.70;57.10;;;;;;5107788;27;20047;-66
2022/12/06 06:21:31;;;;;;;8.45;1.70;;;22.70;56.80;;;;;;5113302;27;20032;-66
2022/12/06 06:23:58;;;;;;;1.92;0.50;;;22.70;56.30;;;;;;5108373;27;20374;-66
2022/12/06 06:26:24;;;;;;;5.47;1.38;;;22.70;55.90;;;;;;5111239;27;20027;-66
2022/12/06 06:28:51;;;;;;;0.75;0.30;;;22.80;55.80;;;;;;5109509;27;20024;-66
2022/12/06 06:31:17;;;;;;;1.60;0.38;;;22.80;55.80;;;;;;5116170;27;20023;-66
2022/12/06 06:33:44;;;;;;;2.53;0.95;;;22.80;55.90;;;;;;5109404;27;20012;-66
2022/12/06 06:36:10;;;;;;;0.88;0.40;;;22.90;55.80;;;;;;5108334;27;20022;-66
2022/12/06 06:38:37;;;;;;;1.80;0.40;;;22.90;56.40;;;;;;5110392;27;20555;-66
2022/12/06 06:41:05;;;;;;;0.32;0.20;;;22.90;55.70;;;;;;5111848;27;20139;-66
2022/12/06 06:43:31;;;;;;;2.05;0.45;;;23.00;55.60;;;;;;5110567;27;20561;-66
2022/12/06 06:46:01;;;;;;;1.90;1.05;;;23.00;55.30;;;;;;5104656;27;20028;-67
2022/12/06 06:48:32;;;;;;;2.33;0.38;;;23.00;55.10;;;;;;5107027;27;20102;-65
2022/12/06 06:51:04;;;;;;;0.17;0.17;;;23.00;54.90;;;;;;5112294;27;20028;-67
2022/12/06 06:53:31;;;;;;;6.57;1.90;;;23.10;54.60;;;;;;5104944;27;20023;-66
2022/12/06 06:55:57;;;;;;;7.13;1.23;;;23.10;54.30;;;;;;5111049;27;20030;-67
2022/12/06 06:58:24;;;;;;;9.77;2.95;;;23.10;53.70;;;;;;5110913;27;20035;-66
2022/12/06 07:00:59;;;;;;;2.38;0.40;;;23.20;53.90;;;;;;5112156;27;20378;-66
2022/12/06 07:03:26;;;;;;;3.90;0.52;;;23.20;54.50;;;;;;5102831;27;20197;-66
2022/12/06 07:05:58;;;;;;;1.02;0.20;;;23.20;53.70;;;;;;5109533;27;20498;-67
2022/12/06 07:08:26;;;;;;;1.88;0.40;;;23.30;53.50;;;;;;5109633;27;20027;-66
2022/12/06 07:10:53;;;;;;;0.28;0.20;;;23.30;53.20;;;;;;5109374;27;20008;-67
2022/12/06 07:13:21;;;;;;;2.08;0.40;;;23.30;53.20;;;;;;5109828;27;20152;-67
2022/12/06 07:15:48;;;;;;;0.85;0.30;;;23.40;53.20;;;;;;5106589;27;20489;-66
2022/12/06 07:18:18;;;;;;;0.98;0.38;;;23.40;53.10;;;;;;5110043;27;20047;-66
2022/12/06 07:20:48;;;;;;;2.75;0.45;;;23.50;53.10;;;;;;5108407;27;20027;-66
2022/12/06 07:23:15;;;;;;;3.17;0.55;;;23.50;53.10;;;;;;5112198;27;20034;-67
2022/12/06 07:25:42;;;;;;;4.50;0.68;;;23.50;53.10;;;;;;5104646;27;20375;-66
2022/12/06 07:28:08;;;;;;;3.13;1.00;;;23.60;53.00;;;;;;5108991;27;20004;-66
2022/12/06 07:30:35;;;;;;;6.03;1.20;;;23.60;52.90;;;;;;5113708;27;20038;-66
2022/12/06 07:33:01;;;;;;;5.38;1.17;;;23.60;53.00;;;;;;5112989;27;20038;-66
2022/12/06 07:35:28;;;;;;;7.85;0.98;;;23.60;53.00;;;;;;5106825;27;20456;-67
2022/12/06 07:37:54;;;;;;;2.72;0.60;;;23.70;53.00;;;;;;5111001;27;20024;-66
2022/12/06 07:40:21;;;;;;;5.38;0.77;;;23.70;52.90;;;;;;5109182;27;20477;-66
2022/12/06 07:45:32;;;;;;;0.80;0.52;;;23.80;52.50;;;;;;5106682;27;20047;-66
2022/12/06 07:47:59;;;;;;;3.45;0.77;;;23.80;52.50;;;;;;5106995;27;20653;-66
2022/12/06 07:50:25;;;;;;;8.60;1.33;;;23.80;52.30;;;;;;5108256;27;20019;-66
2022/12/06 07:52:52;;;;;;;17.63;2.90;;;23.90;52.70;;;;;;5116870;27;20073;-67
2022/12/06 07:55:18;;;;;;;4.18;1.05;;;23.90;53.10;;;;;;5111449;27;20521;-66
2022/12/06 07:57:45;;;;;;;4.82;0.80;;;23.90;53.20;;;;;;5108245;27;20070;-66
2022/12/06 08:00:15;;;;;;;3.53;0.95;;;23.90;53.00;;;;;;5107875;27;20034;-66
2022/12/06 08:02:41;;;;;;;1.98;0.70;;;23.90;53.10;;;;;;5108710;27;20055;-67
2022/12/06 08:05:09;;;;;;;2.42;0.60;;;23.90;52.60;;;;;;5110597;28;20019;-67
2022/12/06 08:07:35;;;;;;;0.88;0.73;;;24.00;52.00;;;;;;5110945;28;20023;-67
2022/12/06 08:10:02;;;;;;;2.92;0.75;;;24.00;51.40;;;;;;5110339;28;20024;-66
2022/12/06 08:12:32;;;;;;;1.23;0.65;;;24.10;51.20;;;;;;5105046;28;20059;-66
2022/12/06 08:14:58;;;;;;;3.40;0.90;;;24.10;51.10;;;;;;5107508;28;20032;-67
2022/12/06 08:17:25;;;;;;;4.40;0.90;;;24.10;50.80;;;;;;5107148;27;20042;-67
2022/12/06 08:19:52;;;;;;;2.53;2.33;;;24.10;50.80;;;;;;5105355;28;20034;-65
2022/12/06 08:22:19;;;;;;;3.67;1.60;;;24.20;51.10;;;;;;5112836;27;20046;-65
2022/12/06 08:24:45;;;;;;;1.65;0.93;;;24.20;50.80;;;;;;5106651;28;20067;-65
2022/12/06 08:27:12;;;;;;;0.73;0.55;;;24.20;51.00;;;;;;5111722;28;20453;-66
2022/12/06 08:29:38;;;;;;;1.33;0.60;;;24.30;50.90;;;;;;5106145;27;20028;-66
2022/12/06 08:32:05;;;;;;;1.15;0.52;;;24.30;51.10;;;;;;5114255;27;20047;-66
2022/12/06 08:34:32;;;;;;;3.67;0.70;;;24.30;51.10;;;;;;5111241;27;20050;-66
2022/12/06 08:36:59;;;;;;;3.13;0.45;;;24.40;51.40;;;;;;5114361;27;20034;-65
2022/12/06 08:39:27;;;;;;;1.83;0.40;;;24.40;51.40;;;;;;5109697;27;20031;-66
2022/12/06 08:42:02;;;;;;;2.40;0.40;;;24.40;50.60;;;;;;5110257;27;20021;-65
2022/12/06 08:44:30;;;;;;;3.65;1.05;;;24.40;49.80;;;;;;5110553;27;20069;-65
2022/12/06 08:46:59;;;;;;;6.30;1.73;;;24.50;49.90;;;;;;5111619;27;20023;-65
2022/12/06 08:49:27;;;;;;;3.80;0.40;;;24.50;49.60;;;;;;5113394;27;20370;-65
2022/12/06 08:51:54;;;;;;;10.95;1.48;;;24.50;49.10;;;;;;5112867;27;20149;-65
2022/12/06 08:54:23;;;;;;;2.75;0.85;;;24.60;49.10;;;;;;5112468;27;20023;-65
2022/12/06 08:56:50;;;;;;;3.03;1.15;;;24.60;49.10;;;;;;5111239;27;20035;-66
2022/12/06 08:59:18;;;;;;;8.57;0.70;;;24.60;48.30;;;;;;5111037;27;20145;-65
2022/12/06 09:01:45;;;;;;;2.20;0.90;;;24.70;48.50;;;;;;5108508;27;20161;-65
2022/12/06 09:04:12;;;;;;;3.08;0.52;;;24.70;48.70;;;;;;5110876;27;20086;-65
2022/12/06 09:06:42;;;;;;;2.05;0.45;;;24.80;48.60;;;;;;5114642;27;20470;-65
2022/12/06 09:09:09;;;;;;;1.95;0.40;;;24.80;48.70;;;;;;5111679;27;20019;-65
2022/12/06 09:11:37;;;;;;;2.45;0.38;;;24.90;48.90;;;;;;5112573;27;20020;-65
2022/12/06 09:14:03;;;;;;;0.90;0.70;;;24.90;48.50;;;;;;5112134;27;20047;-65
2022/12/06 09:16:30;;;;;;;1.65;0.47;;;24.90;48.60;;;;;;5111158;27;20400;-65
2022/12/06 09:18:57;;;;;;;1.77;0.32;;;24.90;48.30;;;;;;5115751;27;20032;-66
2022/12/06 09:21:29;;;;;;;0.93;0.50;;;25.00;48.00;;;;;;5112732;27;20028;-65
2022/12/06 09:23:57;;;;;;;2.17;0.50;;;25.00;47.90;;;;;;5110188;27;20478;-65
2022/12/06 09:26:24;;;;;;;1.27;0.45;;;25.00;48.30;;;;;;5112380;27;20059;-65
2022/12/06 09:28:52;;;;;;;2.17;0.73;;;25.00;48.10;;;;;;5110263;27;20085;-65
2022/12/06 09:31:19;;;;;;;2.28;0.75;;;25.00;48.00;;;;;;5111972;27;20477;-66
2022/12/06 09:33:46;;;;;;;2.08;0.85;;;25.00;48.30;;;;;;5111876;27;20036;-65
2022/12/06 09:36:24;;;;;;;1.55;0.55;;;25.00;49.00;;;;;;5113800;27;20036;-65
2022/12/06 09:39:10;;;;;;;1.35;0.60;;;25.10;49.90;;;;;;5110695;27;20032;-65
2022/12/06 09:42:06;;;;;;;1.25;0.60;;;25.10;49.90;;;;;;5110894;27;20027;-65
2022/12/06 09:44:45;;;;;;;0.95;0.40;;;25.20;49.90;;;;;;5109496;27;20031;-65
2022/12/06 09:47:39;;;;;;;1.80;0.82;;;25.20;50.30;;;;;;5109497;27;20052;-65
2022/12/06 09:50:45;;;;;;;2.35;0.40;;;25.30;49.90;;;;;;5112825;27;20019;-65
2022/12/06 09:53:30;;;;;;;2.63;0.50;;;25.30;49.20;;;;;;5114667;27;20081;-65
2022/12/06 09:56:28;;;;;;;1.05;0.30;;;25.30;49.10;;;;;;5110002;27;20390;-65
2022/12/06 09:59:22;;;;;;;2.25;0.70;;;25.30;48.80;;;;;;5109470;27;20032;-65
2022/12/06 10:02:25;;;;;;;0.70;0.52;;;25.40;49.50;;;;;;5106748;27;20016;-66
2022/12/06 10:05:18;;;;;;;2.65;0.82;;;25.40;49.60;;;;;;5105845;27;20481;-65
2022/12/06 10:07:50;;;;;;;1.83;0.60;;;25.50;49.60;;;;;;5110120;27;22086;-66
2022/12/06 10:10:55;;;;;;;0.93;0.80;;;25.50;50.40;;;;;;5110213;27;20080;-65
2022/12/06 10:13:46;;;;;;;3.97;0.68;;;25.50;50.70;;;;;;5064115;28;20048;-65
2022/12/06 10:16:25;;;;;;;1.60;0.50;;;25.60;51.10;;;;;;5111779;27;20028;-65
2022/12/06 10:19:16;;;;;;;1.02;0.40;;;25.60;51.20;;;;;;5113728;27;20035;-65
2022/12/06 10:22:12;;;;;;;1.48;0.40;;;25.60;51.20;;;;;;5105115;27;20031;-65
2022/12/06 10:24:41;;;;;;;;;;;25.60;51.10;;;;;;5110116;27;20486;-66
2022/12/06 10:27:21;;;;;;;4.00;0.70;;;25.60;51.50;;;;;;5109775;27;19965;-66
2022/12/06 10:30:20;;;;;;;1.58;0.40;;;25.70;51.70;;;;;;5112485;27;20024;-66
2022/12/06 10:33:20;;;;;;;3.17;0.70;;;25.70;51.90;;;;;;5106924;27;20036;-66
2022/12/06 10:35:52;;;;;;;2.00;0.47;;;25.70;52.00;;;;;;5108981;27;20024;-66
2022/12/06 10:38:22;;;;;;;2.72;1.10;;;25.70;52.10;;;;;;5113461;27;20413;-65
2022/12/06 10:41:12;;;;;;;1.10;0.55;;;25.70;52.00;;;;;;5110342;27;20024;-65
2022/12/06 10:44:11;;;;;;;1.55;0.40;;;25.80;52.00;;;;;;5104418;27;20058;-65
2022/12/06 10:47:05;;;;;;;1.17;0.20;;;25.80;51.70;;;;;;5084108;27;20028;-66
2022/12/06 10:49:42;;;;;;;0.93;0.33;;;25.80;51.60;;;;;;5107997;27;20028;-66
2022/12/06 10:52:50;;;;;;;1.13;0.45;;;25.90;51.80;;;;;;5107723;27;20263;-66
2022/12/06 10:55:25;;;;;;;4.07;0.70;;;25.90;51.70;;;;;;5066941;28;20035;-65
2022/12/06 10:58:08;;;;;;;3.00;0.43;;;26.00;51.20;;;;;;5102873;27;20047;-65
2022/12/06 11:00:41;;;;;;;2.08;0.30;;;25.90;51.00;;;;;;5110842;27;20078;-66
2022/12/06 11:03:33;;;;;;;2.50;0.50;;;25.90;50.90;;;;;;5108749;27;20533;-67
2022/12/06 11:06:17;;;;;;;3.45;0.68;;;26.00;50.90;;;;;;5097289;27;20038;-65
2022/12/06 11:08:52;;;;;;;1.05;0.50;;;26.00;51.10;;;;;;5107707;27;20020;-65
2022/12/06 11:11:30;;;;;;;3.25;1.20;;;26.10;51.00;;;;;;5111692;27;20449;-66
2022/12/06 11:14:05;;;;;;;1.80;0.50;;;26.10;50.80;;;;;;5107010;27;20069;-66
2022/12/06 11:16:40;;;;;;;4.13;0.63;;;26.10;51.00;;;;;;5105662;27;20115;-66
2022/12/06 11:19:30;;;;;;;1.80;0.38;;;26.10;50.90;;;;;;5108797;27;20484;-65
2022/12/06 11:22:31;;;;;;;1.08;0.35;;;26.20;50.80;;;;;;5101539;27;20032;-65
2022/12/06 11:25:15;;;;;;;1.52;0.50;;;26.30;50.40;;;;;;5111028;27;20053;-66
2022/12/06 11:27:51;;;;;;;5.22;0.90;;;26.30;50.10;;;;;;5107807;27;20069;-66
2022/12/06 11:30:20;;;;;;;5.35;0.88;;;26.40;49.90;;;;;;5110769;27;20604;-66
2022/12/06 11:32:50;;;;;;;0.95;0.55;;;26.40;49.60;;;;;;5110358;27;20099;-66
2022/12/06 11:35:25;;;;;;;2.20;0.50;;;26.40;49.50;;;;;;5122005;27;20659;-65
2022/12/06 11:37:57;;;;;;;2.97;0.85;;;26.40;49.40;;;;;;5109627;27;20035;-65
2022/12/06 11:40:27;;;;;;;1.42;0.40;;;26.40;49.50;;;;;;5109435;27;20020;-65
2022/12/06 11:42:55;;;;;;;2.58;0.60;;;26.40;49.40;;;;;;5107946;27;20031;-65
2022/12/06 11:45:31;;;;;;;1.23;0.60;;;26.40;49.30;;;;;;5102958;27;20374;-65
2022/12/06 11:48:00;;;;;;;9.27;0.85;;;26.50;49.10;;;;;;5106632;27;20429;-65
2022/12/06 11:50:34;;;;;;;2.35;0.40;;;26.50;49.20;;;;;;5108180;27;20035;-65
2022/12/06 11:53:17;;;;;;;1.87;0.60;;;26.50;48.90;;;;;;5109321;27;20030;-65
2022/12/06 11:55:48;;;;;;;1.15;0.35;;;26.50;49.10;;;;;;5110391;27;20055;-65
2022/12/06 11:58:21;;;;;;;1.52;0.52;;;26.50;49.30;;;;;;5106452;27;20040;-65
2022/12/06 12:01:01;;;;;;;2.83;0.55;;;26.50;49.20;;;;;;5108658;27;20379;-65
2022/12/06 12:03:31;;;;;;;1.48;0.65;;;26.60;49.00;;;;;;5108239;27;20015;-65
2022/12/06 12:06:17;;;;;;;1.23;0.40;;;26.60;48.50;;;;;;5107541;27;20157;-65
2022/12/06 12:09:00;;;;;;;6.03;0.40;;;26.60;48.30;;;;;;5108237;28;20020;-65
2022/12/06 12:11:33;;;;;;;2.17;0.47;;;26.50;47.90;;;;;;5107538;28;20020;-65
2022/12/06 12:14:26;;;;;;;2.92;0.65;;;26.50;48.00;;;;;;5109016;28;20110;-65
2022/12/06 12:17:01;;;;;;;4.70;0.75;;;26.50;47.80;;;;;;5113556;28;20028;-65
2022/12/06 12:19:44;;;;;;;4.63;1.08;;;26.60;48.10;;;;;;5105134;28;20104;-65
2022/12/06 12:22:20;;;;;;;0.85;0.57;;;26.60;48.00;;;;;;5112960;28;20582;-65
2022/12/06 12:24:48;;;;;;;2.67;0.55;;;26.60;47.90;;;;;;5109415;28;20051;-65
2022/12/06 12:27:30;;;;;;;1.38;0.30;;;26.60;47.80;;;;;;5104987;28;20104;-65
2022/12/06 12:30:36;;;;;;;2.83;0.43;;;26.60;47.60;;;;;;5106193;28;20390;-66
2022/12/06 12:33:05;;;;;;;1.83;0.45;;;26.70;47.50;;;;;;5085168;28;20038;-68
2022/12/06 12:35:40;;;;;;;2.72;0.52;;;26.70;47.00;;;;;;5104845;28;20485;-64
2022/12/06 12:38:09;;;;;;;2.08;0.65;;;26.60;47.10;;;;;;5110391;28;20027;-67
2022/12/06 12:40:38;;;;;;;6.22;1.02;;;26.60;47.00;;;;;;5103511;28;20615;-67
2022/12/06 12:43:14;;;;;;;9.35;0.80;;;26.60;47.00;;;;;;5111742;28;20431;-66
2022/12/06 12:46:03;;;;;;;4.10;0.60;;;26.70;47.10;;;;;;5100337;28;20076;-67
2022/12/06 12:48:29;;;;;;;7.70;2.47;;;26.60;46.90;;;;;;5109113;28;20494;-66
2022/12/06 12:50:59;;;;;;;14.85;1.80;;;26.70;47.50;;;;;;5111437;28;20047;-67
2022/12/06 12:53:39;;;;;;;25.45;3.53;;;26.70;47.90;;;;;;5102097;27;20016;-66
2022/12/06 12:56:15;;;;;;;5.60;0.82;;;26.80;48.30;;;;;;5108780;28;20023;-67
2022/12/06 12:58:43;;;;;;;1.88;0.50;;;26.80;48.00;;;;;;5106886;28;20115;-66
2022/12/06 13:01:25;;;;;;;5.15;0.77;;;26.80;46.80;;;;;;5107001;28;20728;-67
2022/12/06 13:04:19;;;;;;;0.80;0.47;;;26.80;46.60;;;;;;5109631;28;20034;-67
2022/12/06 13:07:00;;;;;;;3.53;1.35;;;26.80;46.70;;;;;;5107048;28;20503;-66
2022/12/06 13:09:32;;;;;;;2.40;0.40;;;26.70;46.50;;;;;;5104757;28;20027;-66
2022/12/06 13:12:10;;;;;;;6.40;1.70;;;26.70;46.30;;;;;;5105722;28;20139;-67
2022/12/06 13:14:40;;;;;;;5.05;0.77;;;26.70;46.00;;;;;;5106068;28;20019;-67
2022/12/06 13:17:08;;;;;;;3.08;1.40;;;26.60;46.30;;;;;;5109976;27;20104;-67
2022/12/06 13:19:41;;;;;;;2.80;0.77;;;26.70;46.60;;;;;;5109064;27;20507;-67
2022/12/06 13:22:18;;;;;;;2.65;0.70;;;26.70;46.30;;;;;;5110813;27;20080;-67
2022/12/06 13:24:52;;;;;;;0.88;0.38;;;26.70;46.20;;;;;;5108227;27;20087;-67
2022/12/06 13:27:22;;;;;;;1.95;0.40;;;26.70;46.10;;;;;;5115068;27;20030;-67
2022/12/06 13:30:05;;;;;;;1.10;0.30;;;26.70;46.30;;;;;;5110802;27;20052;-67
2022/12/06 13:32:39;;;;;;;3.15;0.77;;;26.70;46.30;;;;;;5110953;27;20034;-66
2022/12/06 13:35:40;;;;;;;11.35;1.58;;;26.80;46.70;;;;;;5113979;27;20051;-67
2022/12/06 13:38:19;;;;;;;12.98;1.48;;;26.70;47.00;;;;;;5103664;27;20052;-67
2022/12/06 13:40:56;;;;;;;9.13;1.45;;;26.80;47.20;;;;;;5114251;27;20149;-67
2022/12/06 13:43:25;;;;;;;4.07;0.90;;;26.80;46.70;;;;;;5110859;27;20633;-67
2022/12/06 13:46:08;;;;;;;5.05;0.70;;;26.80;47.50;;;;;;5115510;27;20077;-67
2022/12/06 13:48:58;;;;;;;2.00;0.88;;;26.80;47.70;;;;;;5112097;27;20031;-67
2022/12/06 13:51:31;;;;;;;5.95;0.70;;;26.80;47.20;;;;;;5109861;27;20111;-67
2022/12/06 13:54:06;;;;;;;4.28;0.82;;;26.80;47.00;;;;;;5112726;27;20367;-66
2022/12/06 13:56:33;;;;;;;0.95;0.47;;;26.80;47.50;;;;;;5108204;27;20073;-66
2022/12/06 13:59:19;;;;;;;1.58;0.60;;;26.80;47.50;;;;;;5106188;27;20028;-67
2022/12/06 14:01:49;;;;;;;0.95;0.20;;;26.90;47.30;;;;;;5102986;27;20529;-67
2022/12/06 16:26:21;;;;;;;9.38;4.63;;;25.90;48.40;;;;;;5068899;28;20044;-69
2022/12/06 16:28:47;;;;;;;9.95;4.60;;;25.90;48.10;;;;;;5065655;28;20399;-69
2022/12/06 16:31:14;;;;;;;2.60;1.65;;;25.90;47.90;;;;;;5067162;28;20052;-69